This is the latest recevied weather packets stored in our database for station/object DL5MAC-13. If no packets are shown the sender has not sent any weather packets the latest 1 day(s).
| Time | Temp. | Humidity | Pressure | Rain* | Wind** | Luminosity | Snow |
|---|---|---|---|---|---|---|---|
| 1778032879 | 10° C | 91% | 1011 hPa | 0 mm | - | 0 W/m² | - |
| 1778032240 | 10.56° C | 91% | 1011 hPa | 0 mm | - | 0 W/m² | - |
| 1778031663 | 10.56° C | 91% | 1011.1 hPa | 0 mm | - | 0 W/m² | - |
| 1778031023 | 10.56° C | 91% | 1011.3 hPa | 0 mm | - | 0 W/m² | - |
| 1778030443 | 10.56° C | 90% | 1011.3 hPa | 0 mm | - | 0 W/m² | - |
| 1778028671 | 10.56° C | 86% | 1011.3 hPa | 0 mm | - | 0 W/m² | - |
| 1778027454 | 11.67° C | 83% | 1011.3 hPa | 0 mm | - | 0 W/m² | - |
| 1778026830 | 12.22° C | 83% | 1011.4 hPa | 0 mm | - | 0 W/m² | - |
| 1778026255 | 12.22° C | 82% | 1011.3 hPa | 0 mm | - | 0 W/m² | - |
| 1778022624 | 12.78° C | 88% | 1011.9 hPa | 0 mm | - | 0 W/m² | - |
| 1778021472 | 12.78° C | 88% | 1011.8 hPa | 0 mm | - | 0 W/m² | - |
| 1778018479 | 12.78° C | 86% | 1011.5 hPa | 0 mm | - | 0 W/m² | - |
| 1778013678 | 12.22° C | 88% | 1011.1 hPa | 0 mm | - | 0 W/m² | - |
| 1778013039 | 12.22° C | 88% | 1010.9 hPa | 0 mm | - | 0 W/m² | - |
| 1778010634 | 12.22° C | 90% | 1010 hPa | 0 mm | - | 0 W/m² | - |
| 1778005231 | 13.89° C | 90% | 1009.1 hPa | 0 mm | - | 4 W/m² | - |
| 1778004655 | 14.44° C | 90% | 1008.8 hPa | 0 mm | - | 6 W/m² | - |
| 1778002879 | 14.44° C | 90% | 1008.8 hPa | 0.76 mm | - | 23 W/m² | - |
| 1778001663 | 14.44° C | 89% | 1008.9 hPa | 2.54 mm | - | 15 W/m² | - |
| 1777999264 | 15° C | 85% | 1009.3 hPa | 2.29 mm | - | 9 W/m² | - |
| 1777997471 | 17.22° C | 68% | 1009.5 hPa | 0 mm | - | 8 W/m² | - |
| 1777996831 | 18.89° C | 59% | 1009 hPa | 0 mm | - | 9 W/m² | - |
* Rain latest hour (hover to see other rain measurements)
** Current wind speed in m/s (hover to see current wind gust speed)